createdAt,value
2023-01-11T00:01:26.592Z,98058.97
2023-01-11T00:04:30.845Z,98056.34
2023-01-11T00:07:35.106Z,98054.53
2023-01-11T00:10:39.238Z,98065.84
2023-01-11T00:13:43.035Z,98062.78
2023-01-11T00:16:47.207Z,98046.88
2023-01-11T00:26:35.161Z,98041.53
2023-01-11T00:29:42.206Z,98037.06
2023-01-11T00:32:46.263Z,98041.22
2023-01-11T00:35:50.568Z,98039.56
2023-01-11T00:38:54.418Z,98048.47
2023-01-11T00:41:58.338Z,98047.47
2023-01-11T00:45:02.443Z,98047.47
2023-01-11T00:48:06.714Z,98044.03
2023-01-11T00:51:11.050Z,98043.00
2023-01-11T00:54:15.083Z,98038.78
2023-01-11T00:57:18.874Z,98032.13
2023-01-11T01:00:22.788Z,98026.69
2023-01-11T01:03:27.104Z,98030.72
2023-01-11T01:06:30.959Z,98027.91
2023-01-11T01:09:34.651Z,98032.94
2023-01-11T01:12:39.066Z,98028.69
2023-01-11T01:15:43.126Z,98025.28
2023-01-11T01:18:47.200Z,98028.28
2023-01-11T01:21:51.020Z,98027.28
2023-01-11T01:24:54.988Z,98015.41
2023-01-11T01:27:58.877Z,98015.56
2023-01-11T01:31:02.820Z,98011.13
2023-01-11T01:34:06.856Z,97999.44
2023-01-11T01:37:10.704Z,97998.03
2023-01-11T01:40:14.647Z,97990.97
2023-01-11T01:43:18.656Z,97993.38
2023-01-11T01:46:22.600Z,97987.53
2023-01-11T01:49:26.461Z,97994.41
2023-01-11T01:52:30.558Z,97988.94
2023-01-11T01:55:34.677Z,97983.31
2023-01-11T01:58:38.675Z,97990.16
2023-01-11T02:01:42.633Z,98005.69
2023-01-11T02:04:46.683Z,98005.91
2023-01-11T02:07:50.525Z,98013.53
2023-01-11T02:10:54.543Z,98005.06
2023-01-11T02:13:58.363Z,98017.16
2023-01-11T02:17:02.283Z,98010.47
2023-01-11T02:20:06.211Z,98007.09
2023-01-11T02:23:10.235Z,98009.31
2023-01-11T02:26:14.179Z,98006.25
2023-01-11T02:29:18.114Z,97994.53
2023-01-11T02:32:22.053Z,97983.69
2023-01-11T02:35:25.951Z,97991.94
2023-01-11T02:38:30.141Z,97989.09
2023-01-11T02:41:34.108Z,97982.06
2023-01-11T02:44:37.835Z,97971.97
2023-01-11T02:47:42.567Z,97959.66
2023-01-11T02:50:46.509Z,97950.56
2023-01-11T02:53:50.570Z,97954.81
2023-01-11T02:56:54.435Z,97941.28
2023-01-11T02:59:58.303Z,97943.28
2023-01-11T03:03:02.519Z,97929.97
2023-01-11T03:06:06.335Z,97925.31
2023-01-11T03:09:10.187Z,97924.34
2023-01-11T03:12:14.075Z,97921.72
2023-01-11T03:15:18.215Z,97931.59
2023-01-11T03:18:22.166Z,97925.31
2023-01-11T03:21:26.217Z,97922.16
2023-01-11T03:24:30.040Z,97927.84
2023-01-11T03:27:33.975Z,97923.16
2023-01-11T03:30:38.059Z,97921.34
2023-01-11T03:33:42.026Z,97932.31
2023-01-11T03:36:45.967Z,97919.69
2023-01-11T03:39:49.841Z,97931.38
2023-01-11T03:42:54.036Z,97927.34
2023-01-11T03:45:58.041Z,97927.09
2023-01-11T03:49:02.083Z,97912.13
2023-01-11T03:52:06.142Z,97921.06
2023-01-11T03:55:10.052Z,97911.78
2023-01-11T03:58:14.113Z,97896.69
2023-01-11T04:01:17.884Z,97886.44
2023-01-11T04:04:21.827Z,97879.81
2023-01-11T04:07:25.630Z,97872.38
2023-01-11T04:10:29.896Z,97874.97
2023-01-11T04:13:33.778Z,97873.78
2023-01-11T04:16:38.032Z,97866.72
2023-01-11T04:19:41.973Z,97882.59
2023-01-11T04:22:46.071Z,97879.97
2023-01-11T04:25:50.132Z,97878.03
2023-01-11T04:28:54.506Z,97871.91
2023-01-11T04:31:58.613Z,97882.75
2023-01-11T04:35:02.361Z,97876.75
2023-01-11T04:38:06.433Z,97876.03
2023-01-11T04:41:10.491Z,97867.09
2023-01-11T04:44:14.526Z,97864.41
2023-01-11T04:47:18.581Z,97872.09
2023-01-11T04:50:22.593Z,97878.78
2023-01-11T04:53:26.576Z,97889.16
2023-01-11T04:56:30.663Z,97874.75
2023-01-11T04:59:34.550Z,97876.84
2023-01-11T05:02:38.307Z,97873.72
2023-01-11T05:05:42.186Z,97870.84
2023-01-11T05:08:46.524Z,97869.03
2023-01-11T05:11:50.639Z,97867.06
2023-01-11T05:14:54.558Z,97875.59
2023-01-11T05:17:58.475Z,97885.06
2023-01-11T05:21:02.589Z,97879.22
2023-01-11T05:24:06.559Z,97874.38
2023-01-11T05:27:10.419Z,97873.38
2023-01-11T05:30:14.448Z,97867.34
2023-01-11T05:33:18.313Z,97866.34
2023-01-11T05:36:22.490Z,97872.41
2023-01-11T05:39:26.342Z,97860.91
2023-01-11T05:42:30.579Z,97859.91
2023-01-11T05:45:34.753Z,97859.50
2023-01-11T05:48:38.697Z,97849.19
2023-01-11T05:51:43.123Z,97848.00
2023-01-11T05:54:47.189Z,97852.63
2023-01-11T05:57:51.230Z,97850.03
2023-01-11T06:00:55.297Z,97840.97
2023-01-11T06:03:59.547Z,97847.63
2023-01-11T06:07:03.731Z,97848.38
2023-01-11T06:10:07.601Z,97850.03
2023-01-11T06:13:11.552Z,97851.22
2023-01-11T06:16:16.006Z,97856.09
2023-01-11T06:19:20.132Z,97859.31
2023-01-11T06:22:24.117Z,97856.47
2023-01-11T06:25:28.011Z,97846.78
2023-01-11T06:28:34.098Z,97851.41
2023-01-11T06:31:38.069Z,97857.25
2023-01-11T06:34:42.244Z,97855.66
2023-01-11T06:37:46.206Z,97848.22
2023-01-11T06:40:49.913Z,97856.69
2023-01-11T06:43:53.878Z,97865.31
2023-01-11T06:46:57.974Z,97861.91
2023-01-11T06:50:01.913Z,97861.53
2023-01-11T06:53:05.787Z,97865.34
2023-01-11T06:56:09.924Z,97861.31
2023-01-11T06:59:13.684Z,97852.03
2023-01-11T07:02:18.091Z,97858.28
2023-01-11T07:05:22.117Z,97866.94
2023-01-11T07:08:26.133Z,97872.00
2023-01-11T07:11:32.399Z,97871.78
2023-01-11T07:14:36.461Z,97875.19
2023-01-11T07:17:40.764Z,97850.59
2023-01-11T07:20:44.874Z,97854.63
2023-01-11T07:23:48.761Z,97851.81
2023-01-11T07:26:52.800Z,97858.06
2023-01-11T07:29:56.791Z,97858.47
2023-01-11T07:33:00.643Z,97851.22
2023-01-11T07:36:04.667Z,97846.16
2023-01-11T07:39:08.691Z,97855.06
2023-01-11T07:42:14.616Z,97859.66
2023-01-11T07:45:19.128Z,97856.84
2023-01-11T07:48:23.320Z,97847.75
2023-01-11T07:51:27.372Z,97852.41
2023-01-11T07:54:31.434Z,97849.16
2023-01-11T07:57:35.375Z,97846.34
2023-01-11T08:00:39.669Z,97852.19
2023-01-11T08:03:43.918Z,97843.53
2023-01-11T08:06:47.783Z,97836.44
2023-01-11T08:09:51.690Z,97839.25
2023-01-11T08:12:55.768Z,97840.66
2023-01-11T08:16:00.035Z,97844.13
2023-01-11T08:19:03.694Z,97841.22
2023-01-11T08:22:07.772Z,97851.94
2023-01-11T08:25:11.702Z,97876.56
2023-01-11T08:28:15.828Z,97882.00
2023-01-11T08:31:20.292Z,97874.75
2023-01-11T08:34:24.140Z,97885.25
2023-01-11T08:37:28.154Z,97874.31
2023-01-11T08:40:32.306Z,97870.06
2023-01-11T08:43:36.586Z,97861.16
2023-01-11T08:46:40.849Z,97859.31
2023-01-11T08:49:45.147Z,97857.78
2023-01-11T08:52:49.240Z,97862.19
2023-01-11T08:55:53.210Z,97870.91
2023-01-11T08:58:57.766Z,97870.28
2023-01-11T09:02:02.073Z,97868.03
2023-01-11T09:05:05.697Z,97858.16
2023-01-11T09:08:09.439Z,97861.00
2023-01-11T09:11:13.745Z,97856.28
2023-01-11T09:14:17.881Z,97855.28
2023-01-11T09:17:21.776Z,97859.03
2023-01-11T09:20:25.805Z,97866.13
2023-01-11T09:23:29.909Z,97869.16
2023-01-11T09:26:34.081Z,97870.69
2023-01-11T09:29:38.297Z,97879.06
2023-01-11T09:32:41.862Z,97889.41
2023-01-11T09:35:45.950Z,97878.44
2023-01-11T09:38:50.031Z,97867.13
2023-01-11T09:41:54.030Z,97870.69
2023-01-11T09:44:58.214Z,97881.81
2023-01-11T09:48:02.116Z,97881.06
2023-01-11T09:51:05.938Z,97885.06
2023-01-11T09:54:09.929Z,97868.47
2023-01-11T09:57:13.877Z,97871.44
2023-01-11T10:00:17.819Z,97879.53
2023-01-11T10:03:21.813Z,97879.34
2023-01-11T10:06:26.203Z,97877.63
2023-01-11T10:18:28.172Z,97878.59
2023-01-11T10:19:42.166Z,97875.28
2023-01-11T10:22:46.464Z,97865.81
2023-01-11T10:25:50.476Z,97867.19
2023-01-11T10:28:54.452Z,97854.84
2023-01-11T10:31:58.577Z,97855.63
2023-01-11T10:35:02.546Z,97861.69
2023-01-11T10:38:06.605Z,97856.69
2023-01-11T10:41:10.596Z,97857.41
2023-01-11T10:44:15.002Z,97850.56
2023-01-11T10:47:18.877Z,97859.66
2023-01-11T10:50:23.092Z,97850.56
2023-01-11T10:53:27.000Z,97850.31
2023-01-11T10:56:30.792Z,97850.06
2023-01-11T10:59:34.874Z,97841.09
2023-01-11T11:02:39.077Z,97836.47
2023-01-11T11:05:43.270Z,97845.91
2023-01-11T11:08:48.332Z,97848.03
2023-01-11T11:11:52.341Z,97836.91
2023-01-11T11:14:56.693Z,97838.03
2023-01-11T11:18:00.882Z,97838.69
2023-01-11T11:21:05.223Z,97837.91
2023-01-11T11:24:09.310Z,97839.63
2023-01-11T11:27:13.366Z,97833.09
2023-01-11T11:30:17.189Z,97835.34
2023-01-11T11:33:21.465Z,97836.44
2023-01-11T11:36:25.363Z,97848.19
2023-01-11T11:39:29.389Z,97842.91
2023-01-11T11:42:33.314Z,97851.25
2023-01-11T11:45:37.384Z,97858.81
2023-01-11T11:48:41.980Z,97852.94
2023-01-11T11:51:46.090Z,97860.38
2023-01-11T11:54:50.053Z,97860.94
2023-01-11T11:57:54.020Z,97857.28
2023-01-11T12:00:58.112Z,97849.16
2023-01-11T12:04:05.185Z,97848.06
2023-01-11T12:07:09.380Z,97839.06
2023-01-11T12:10:13.253Z,97842.06
2023-01-11T12:13:16.951Z,97842.34
2023-01-11T12:16:21.203Z,97842.41
2023-01-11T12:19:25.217Z,97855.03
2023-01-11T12:22:29.404Z,97849.16
2023-01-11T12:25:33.327Z,97836.91
2023-01-11T12:28:37.258Z,97840.75
2023-01-11T12:31:41.479Z,97837.09
2023-01-11T12:34:45.498Z,97834.88
2023-01-11T12:37:49.668Z,97836.25
2023-01-11T12:40:53.428Z,97845.69
2023-01-11T12:43:57.385Z,97844.19
2023-01-11T12:47:01.474Z,97847.59
2023-01-11T12:50:05.362Z,97843.78
2023-01-11T12:53:09.268Z,97843.97
2023-01-11T12:56:12.971Z,97856.91
2023-01-11T12:59:17.212Z,97853.53
2023-01-11T13:02:21.243Z,97845.44
2023-01-11T13:05:25.085Z,97840.00
2023-01-11T13:08:29.258Z,97844.69
2023-01-11T13:11:33.182Z,97844.97
2023-01-11T13:14:37.385Z,97857.84
2023-01-11T13:17:41.360Z,97854.16
2023-01-11T13:21:00.131Z,97849.69
2023-01-11T13:24:05.852Z,97847.09
2023-01-11T13:27:10.070Z,97853.53
2023-01-11T13:30:15.294Z,97856.16
2023-01-11T13:33:19.430Z,97855.75
2023-01-11T13:36:24.102Z,97857.94
2023-01-11T13:39:27.600Z,97861.78
2023-01-11T13:42:31.493Z,97858.31
2023-01-11T13:45:35.753Z,97864.81
2023-01-11T13:48:39.598Z,97862.78
2023-01-11T13:51:43.378Z,97863.16
2023-01-11T13:54:47.617Z,97865.00
2023-01-11T13:57:51.417Z,97864.34
2023-01-11T14:00:55.351Z,97865.16
2023-01-11T14:03:59.346Z,97857.88
2023-01-11T14:07:04.295Z,97864.72
2023-01-11T14:10:08.362Z,97877.28
2023-01-11T14:13:12.556Z,97879.53
2023-01-11T14:16:16.494Z,97885.78
2023-01-11T14:19:20.273Z,97882.56
2023-01-11T14:22:24.273Z,97882.94
2023-01-11T14:25:28.116Z,97899.19
2023-01-11T14:28:32.216Z,97906.22
2023-01-11T14:31:36.065Z,97930.63
2023-01-11T14:34:39.962Z,97918.50
2023-01-11T14:37:44.116Z,97922.91
2023-01-11T14:40:48.170Z,97934.47
2023-01-11T14:43:52.121Z,97939.06
2023-01-11T14:46:56.023Z,97957.63
2023-01-11T14:50:00.137Z,97957.63
2023-01-11T14:53:04.242Z,97959.66
2023-01-11T14:56:08.274Z,97971.53
2023-01-11T14:59:12.114Z,97974.00
2023-01-11T15:02:16.291Z,97979.41
2023-01-11T15:05:20.300Z,97982.28
2023-01-11T15:08:24.587Z,97984.72
2023-01-11T15:11:28.414Z,97999.03
2023-01-11T15:14:32.242Z,98001.25
2023-01-11T15:17:36.097Z,98025.06
2023-01-11T15:20:42.131Z,98023.44
2023-01-11T15:23:46.261Z,98024.06
2023-01-11T15:26:49.814Z,98031.50
2023-01-11T15:29:53.830Z,98042.63
2023-01-11T15:32:57.728Z,98043.63
2023-01-11T15:36:01.889Z,98052.31
2023-01-11T15:39:06.067Z,98057.16
2023-01-11T15:42:10.122Z,98034.75
2023-01-11T15:45:14.083Z,98030.31
2023-01-11T15:48:18.247Z,98038.59
2023-01-11T15:51:22.031Z,98043.41
2023-01-11T15:54:25.882Z,98045.25
2023-01-11T15:57:29.781Z,98042.41
2023-01-11T16:00:34.049Z,98047.66
2023-01-11T16:03:38.153Z,98054.31
2023-01-11T16:06:42.115Z,98056.97
2023-01-11T16:09:47.812Z,98057.72
2023-01-11T16:12:51.714Z,98059.75
2023-01-11T16:15:55.820Z,98060.38
2023-01-11T16:18:59.898Z,98060.97
2023-01-11T16:22:03.724Z,98068.25
2023-01-11T16:25:07.628Z,98078.69
2023-01-11T16:28:11.521Z,98085.44
2023-01-11T16:31:15.605Z,98097.75
2023-01-11T16:34:19.570Z,98088.97
2023-01-11T16:37:23.374Z,98084.75
2023-01-11T16:40:27.353Z,98073.22
2023-01-11T16:43:31.503Z,98085.09
2023-01-11T16:46:35.658Z,98080.69
2023-01-11T16:49:39.710Z,98092.81
2023-01-11T16:52:43.532Z,98110.25
2023-01-11T16:55:47.324Z,98116.84
2023-01-11T16:58:51.456Z,98116.88
2023-01-11T17:01:55.552Z,98106.75
2023-01-11T17:04:59.388Z,98119.25
2023-01-11T17:08:03.331Z,98133.22
2023-01-11T17:11:07.432Z,98108.59
2023-01-11T17:14:11.410Z,98107.50
2023-01-11T17:17:15.509Z,98113.72
2023-01-11T17:20:19.430Z,98122.13
2023-01-11T17:23:23.557Z,98141.09
2023-01-11T17:26:27.675Z,98132.25
2023-01-11T17:29:31.638Z,98121.44
2023-01-11T17:32:35.840Z,98120.84
2023-01-11T17:35:39.775Z,98131.75
2023-01-11T17:38:43.665Z,98149.97
2023-01-11T17:41:48.065Z,98153.97
2023-01-11T17:44:52.058Z,98157.41
2023-01-11T17:47:56.016Z,98166.31
2023-01-11T17:51:00.289Z,98179.59
2023-01-11T17:54:04.213Z,98181.53
2023-01-11T17:57:08.353Z,98166.44
2023-01-11T18:00:12.547Z,98162.13
2023-01-11T18:03:17.884Z,98161.13
2023-01-11T18:06:22.149Z,98163.03
2023-01-11T18:09:26.092Z,98162.94
2023-01-11T18:12:30.059Z,98156.75
2023-01-11T18:15:34.310Z,98150.31
2023-01-11T18:18:38.185Z,98156.56
2023-01-11T18:21:42.249Z,98173.06
2023-01-11T18:24:46.288Z,98180.47
2023-01-11T18:27:50.375Z,98190.34
2023-01-11T18:30:54.443Z,98188.84
2023-01-11T18:33:57.994Z,98183.19
2023-01-11T18:37:02.061Z,98181.75
2023-01-11T18:40:06.110Z,98195.97
2023-01-11T18:43:10.010Z,98190.91
2023-01-11T18:46:13.890Z,98186.34
2023-01-11T18:49:18.026Z,98197.31
2023-01-11T18:52:22.120Z,98200.28
2023-01-11T18:55:25.898Z,98194.22
2023-01-11T18:58:29.860Z,98204.75
2023-01-11T19:01:46.831Z,98212.78
2023-01-11T19:04:57.538Z,98230.94
2023-01-11T19:08:01.710Z,98231.06
2023-01-11T19:11:05.729Z,98221.38
2023-01-11T19:14:09.804Z,98235.63
2023-01-11T19:17:13.686Z,98231.38
2023-01-11T19:20:17.605Z,98230.09
2023-01-11T19:23:21.664Z,98236.47
2023-01-11T19:26:25.584Z,98237.50
2023-01-11T19:29:29.441Z,98233.47
2023-01-11T19:32:33.382Z,98238.22
2023-01-11T19:35:37.541Z,98229.97
2023-01-11T19:38:41.388Z,98231.59
2023-01-11T19:41:45.260Z,98220.22
2023-01-11T19:44:49.093Z,98213.50
2023-01-11T19:47:53.204Z,98212.22
2023-01-11T19:50:57.292Z,98220.41
2023-01-11T19:54:01.171Z,98214.50
2023-01-11T19:57:05.199Z,98225.56
2023-01-11T20:00:09.329Z,98237.63
2023-01-11T20:03:13.383Z,98240.19
2023-01-11T20:06:17.393Z,98241.69
2023-01-11T20:09:21.349Z,98241.22
2023-01-11T20:12:25.194Z,98243.63
2023-01-11T20:15:29.157Z,98246.38
2023-01-11T20:18:33.376Z,98246.00
2023-01-11T20:21:37.469Z,98235.78
2023-01-11T20:24:41.271Z,98229.84
2023-01-11T20:27:45.323Z,98246.47
2023-01-11T20:30:49.435Z,98248.41
2023-01-11T20:33:53.656Z,98250.97
2023-01-11T20:36:57.590Z,98250.88
2023-01-11T20:40:01.642Z,98266.19
2023-01-11T20:43:05.869Z,98270.41
2023-01-11T20:46:10.052Z,98276.56
2023-01-11T20:49:13.955Z,98272.16
2023-01-11T20:52:17.973Z,98265.19
2023-01-11T20:55:22.020Z,98276.56
2023-01-11T20:58:26.299Z,98264.47
2023-01-11T21:01:30.383Z,98262.78
2023-01-11T21:04:34.295Z,98267.97
2023-01-11T21:07:38.145Z,98273.09
2023-01-11T21:10:42.220Z,98279.91
2023-01-11T21:13:46.399Z,98274.63
2023-01-11T21:16:50.367Z,98273.75
2023-01-11T21:19:54.099Z,98286.94
2023-01-11T21:22:58.037Z,98291.00
2023-01-11T21:26:01.931Z,98289.19
2023-01-11T21:29:06.065Z,98297.66
2023-01-11T21:32:10.075Z,98303.81
2023-01-11T21:35:14.095Z,98313.19
2023-01-11T21:38:18.163Z,98319.91
2023-01-11T21:41:22.250Z,98330.28
2023-01-11T21:44:27.253Z,98323.63
2023-01-11T21:47:31.513Z,98308.47
2023-01-11T21:50:35.386Z,98304.06
2023-01-11T21:53:39.621Z,98313.59
2023-01-11T21:56:43.696Z,98317.22
2023-01-11T21:59:47.641Z,98321.47
2023-01-11T22:02:51.717Z,98335.44
2023-01-11T22:05:55.707Z,98328.44
2023-01-11T22:08:59.817Z,98329.63
2023-01-11T22:12:03.837Z,98326.50
2023-01-11T22:15:07.785Z,98326.25
2023-01-11T22:18:11.788Z,98312.31
2023-01-11T22:21:15.767Z,98312.66
2023-01-11T22:24:19.827Z,98319.50
2023-01-11T22:27:28.334Z,98331.34
2023-01-11T22:30:32.672Z,98316.50
2023-01-11T22:33:36.656Z,98319.59
2023-01-11T22:36:40.486Z,98316.66
2023-01-11T22:39:44.709Z,98309.34
2023-01-11T22:42:48.834Z,98312.16
2023-01-11T22:45:52.833Z,98320.84
2023-01-11T22:48:57.999Z,98321.28
2023-01-11T22:52:01.633Z,98330.84
2023-01-11T22:55:06.019Z,98333.72
2023-01-11T22:58:10.212Z,98345.81
2023-01-11T23:01:14.217Z,98331.53
2023-01-11T23:04:18.220Z,98327.72
2023-01-11T23:07:22.179Z,98330.34
2023-01-11T23:10:26.469Z,98339.19
2023-01-11T23:13:30.495Z,98346.97
2023-01-11T23:16:34.464Z,98354.91
2023-01-11T23:19:38.462Z,98351.44
2023-01-11T23:22:42.600Z,98353.72
2023-01-11T23:25:46.856Z,98367.50
2023-01-11T23:28:51.077Z,98364.53
2023-01-11T23:31:55.167Z,98364.63
2023-01-11T23:35:03.568Z,98376.31
2023-01-11T23:38:07.262Z,98358.97
2023-01-11T23:41:11.260Z,98342.44
2023-01-11T23:44:15.507Z,98339.00
2023-01-11T23:47:19.537Z,98330.16
2023-01-11T23:50:23.282Z,98338.16
2023-01-11T23:53:27.343Z,98329.66
2023-01-11T23:56:31.269Z,98323.13
2023-01-11T23:59:35.393Z,98324.09
